CheckWX is a tool to help pilots better visualize weather data.  It is not intended as a substitute for an official pre-flight weather briefing.

16:26:35 UTC

EGVP METAR
Middle Wallop Airfield Airport
Middle Wallop, United Kingdom
Current

37 mins ago

EGVP 161550Z 34005KT 9999 SCT018 SCT032 BKN044 19/16 Q1021 NOSIG RMK WHT WHT
Observed
Sep-16 @ 15:50 UTC
Wind
  • 340° at 5 KTS
Visibility
10,000+ meters
Flight Rules
VFR
Cloud Levels
  • Scattered at 1,800' AGL
  • Scattered at 3,200' AGL
  • Broken at 4,400' AGL
Temperature
19°C / 66°F
Dewpoint
16°C / 61°F
Humidity
83%
Altimeter
30.15" Hg
Pressure
1020.92 hPa
Previous

2 hours ago

EGVP 161450Z 30007KT 9999 BKN018 SCT032 BKN042 20/15 Q1022 TEMPO BKN012 RMK WHT TEMPO GRN
Observed
Sep-16 @ 14:50 UTC
Wind
  • 300° at 7 KTS
Visibility
10,000+ meters
Flight Rules
MVFR
Cloud Levels
  • Broken at 1,800' AGL
  • Scattered at 3,200' AGL
  • Broken at 4,200' AGL
Temperature
20°C / 68°F
Dewpoint
15°C / 59°F
Humidity
73%
Altimeter
30.18" Hg
Pressure
1021.92 hPa
Previous

2 hours ago

EGVP 161422Z 31006KT 9999 BKN019 BKN030 19/15 Q1021 TEMPO BKN012 RMK WHT TEMPO GRN
Observed
Sep-16 @ 14:22 UTC
Wind
  • 310° at 6 KTS
Visibility
10,000+ meters
Flight Rules
MVFR
Cloud Levels
  • Broken at 1,900' AGL
  • Broken at 3,000' AGL
Temperature
19°C / 66°F
Dewpoint
15°C / 59°F
Humidity
78%
Altimeter
30.15" Hg
Pressure
1020.92 hPa